createdAt,value
2019-05-10T00:00:55.198Z,99.90
2019-05-10T00:03:46.290Z,99.90
2019-05-10T00:06:37.314Z,99.90
2019-05-10T00:09:06.586Z,99.90
2019-05-10T00:11:54.065Z,99.90
2019-05-10T00:14:55.266Z,99.90
2019-05-10T00:17:25.023Z,99.90
2019-05-10T00:19:55.067Z,99.90
2019-05-10T00:22:25.447Z,99.90
2019-05-10T00:25:03.839Z,99.90
2019-05-10T00:27:27.203Z,99.90
2019-05-10T00:29:56.996Z,99.90
2019-05-10T00:32:26.656Z,99.90
2019-05-10T00:35:05.576Z,99.90
2019-05-10T00:37:35.205Z,99.90
2019-05-10T00:40:07.206Z,99.90
2019-05-10T00:42:37.217Z,99.90
2019-05-10T00:45:10.734Z,99.90
2019-05-10T00:47:40.487Z,99.90
2019-05-10T00:50:14.416Z,99.90
2019-05-10T00:52:47.825Z,99.90
2019-05-10T00:55:19.336Z,99.90
2019-05-10T00:57:49.311Z,99.90
2019-05-10T01:00:19.925Z,99.90
2019-05-10T01:02:50.320Z,99.90
2019-05-10T01:05:23.697Z,99.90
2019-05-10T01:07:53.568Z,99.90
2019-05-10T01:10:23.336Z,99.90
2019-05-10T01:12:56.665Z,99.90
2019-05-10T01:15:26.547Z,99.90
2019-05-10T01:17:56.751Z,99.90
2019-05-10T01:20:26.915Z,99.90
2019-05-10T01:22:56.584Z,99.90
2019-05-10T01:25:34.531Z,99.90
2019-05-10T01:27:57.786Z,99.90
2019-05-10T01:30:33.843Z,99.90
2019-05-10T01:33:03.566Z,99.90
2019-05-10T01:36:08.749Z,99.90
2019-05-10T01:38:38.901Z,99.90
2019-05-10T01:41:09.161Z,99.90
2019-05-10T01:43:39.676Z,99.90
2019-05-10T01:46:09.594Z,99.90
2019-05-10T01:48:39.945Z,99.90
2019-05-10T01:51:10.206Z,99.90
2019-05-10T01:53:40.166Z,99.90
2019-05-10T01:56:10.072Z,99.90
2019-05-10T01:58:41.221Z,99.90
2019-05-10T02:01:11.394Z,99.90
2019-05-10T02:03:41.446Z,99.90
2019-05-10T02:06:11.594Z,99.90
2019-05-10T02:08:41.674Z,99.90
2019-05-10T02:11:11.635Z,99.90
2019-05-10T02:13:41.579Z,99.90
2019-05-10T02:16:11.406Z,99.90
2019-05-10T02:18:48.599Z,99.90
2019-05-10T02:21:18.584Z,99.90
2019-05-10T02:23:50.905Z,99.90
2019-05-10T02:26:20.955Z,99.90
2019-05-10T02:28:50.676Z,99.90
2019-05-10T02:31:22.199Z,99.90
2019-05-10T02:33:52.055Z,99.90
2019-05-10T02:36:21.799Z,99.90
2019-05-10T02:38:51.646Z,99.90
2019-05-10T02:41:21.428Z,99.90
2019-05-10T02:43:51.315Z,99.90
2019-05-10T02:46:20.998Z,99.90
2019-05-10T02:48:51.229Z,99.90
2019-05-10T02:51:21.035Z,99.90
2019-05-10T02:53:50.664Z,99.90
2019-05-10T02:56:30.616Z,99.90
2019-05-10T02:58:53.712Z,99.90
2019-05-10T03:01:26.103Z,99.90
2019-05-10T03:03:58.488Z,99.90
2019-05-10T03:06:28.865Z,99.90
2019-05-10T03:08:58.758Z,99.90
2019-05-10T03:11:32.389Z,99.90
2019-05-10T03:14:06.167Z,99.90
2019-05-10T03:16:37.954Z,99.90
2019-05-10T03:19:11.184Z,99.90
2019-05-10T03:21:46.797Z,99.90
2019-05-10T03:24:16.856Z,99.90
2019-05-10T03:26:51.350Z,99.90
2019-05-10T03:29:20.127Z,99.90
2019-05-10T03:31:50.205Z,99.90
2019-05-10T03:34:19.891Z,99.90
2019-05-10T03:36:49.550Z,99.90
2019-05-10T03:39:20.937Z,99.90
2019-05-10T03:41:50.787Z,99.90
2019-05-10T03:44:20.568Z,99.90
2019-05-10T03:46:51.694Z,99.90
2019-05-10T03:49:21.468Z,99.90
2019-05-10T03:51:51.244Z,99.90
2019-05-10T03:54:21.120Z,99.90
2019-05-10T03:57:10.287Z,99.90
2019-05-10T03:59:22.299Z,99.90
2019-05-10T04:01:52.323Z,99.90
2019-05-10T04:04:22.376Z,99.90
2019-05-10T04:06:52.407Z,99.90
2019-05-10T04:09:22.126Z,99.90
2019-05-10T04:11:53.047Z,99.90
2019-05-10T04:14:22.768Z,99.90
2019-05-10T04:16:58.272Z,99.90
2019-05-10T04:19:27.986Z,99.90
2019-05-10T04:22:00.003Z,99.90
2019-05-10T04:24:29.746Z,99.90
2019-05-10T04:27:00.753Z,99.90
2019-05-10T04:29:32.947Z,99.90
2019-05-10T04:32:02.681Z,99.90
2019-05-10T04:34:34.981Z,99.90
2019-05-10T04:37:07.696Z,99.90
2019-05-10T04:39:38.364Z,99.90
2019-05-10T04:42:08.370Z,99.90
2019-05-10T04:44:38.626Z,99.90
2019-05-10T04:47:09.886Z,99.90
2019-05-10T04:49:39.564Z,99.90
2019-05-10T04:52:09.197Z,99.90
2019-05-10T04:54:38.812Z,99.90
2019-05-10T04:57:08.708Z,99.90
2019-05-10T04:59:38.997Z,99.90
2019-05-10T05:02:08.766Z,99.90
2019-05-10T05:04:38.613Z,99.90
2019-05-10T05:07:09.148Z,99.90
2019-05-10T05:09:39.314Z,99.90
2019-05-10T05:12:09.378Z,99.90
2019-05-10T05:14:41.667Z,99.90
2019-05-10T05:17:16.045Z,99.90
2019-05-10T05:19:46.390Z,99.90
2019-05-10T05:22:16.582Z,99.90
2019-05-10T05:24:47.211Z,99.90
2019-05-10T05:27:17.144Z,99.90
2019-05-10T05:29:51.408Z,99.90
2019-05-10T05:32:26.162Z,99.90
2019-05-10T05:34:56.316Z,99.90
2019-05-10T05:37:26.434Z,99.90
2019-05-10T05:40:01.054Z,99.90
2019-05-10T05:42:33.674Z,99.90
2019-05-10T05:45:05.391Z,99.90
2019-05-10T05:47:42.321Z,99.90
2019-05-10T05:50:10.380Z,99.90
2019-05-10T05:52:40.090Z,99.90
2019-05-10T05:55:24.200Z,99.90
2019-05-10T05:58:05.042Z,99.90
2019-05-10T06:00:37.582Z,99.90
2019-05-10T06:03:04.204Z,99.90
2019-05-10T06:05:37.341Z,99.90
2019-05-10T06:08:21.379Z,99.90
2019-05-10T06:10:44.194Z,99.90
2019-05-10T06:13:29.958Z,99.90
2019-05-10T06:15:55.040Z,99.90
2019-05-10T06:18:25.180Z,99.90
2019-05-10T06:21:03.898Z,99.90
2019-05-10T06:23:35.151Z,99.90
2019-05-10T06:26:06.322Z,99.90
2019-05-10T06:28:57.344Z,99.90
2019-05-10T06:31:08.185Z,99.90
2019-05-10T06:33:39.590Z,99.90
2019-05-10T06:36:09.899Z,99.90
2019-05-10T06:38:40.177Z,99.90
2019-05-10T06:41:16.945Z,99.90
2019-05-10T06:43:45.693Z,99.90
2019-05-10T06:46:16.761Z,99.90
2019-05-10T06:48:51.798Z,99.90
2019-05-10T06:51:21.893Z,99.90
2019-05-10T06:53:53.743Z,99.90
2019-05-10T06:56:23.138Z,99.90
2019-05-10T06:58:55.227Z,99.90
2019-05-10T07:01:25.162Z,99.90
2019-05-10T07:03:58.168Z,99.90
2019-05-10T07:06:28.418Z,99.90
2019-05-10T07:09:03.391Z,99.90
2019-05-10T07:11:33.382Z,99.90
2019-05-10T07:14:03.934Z,99.90
2019-05-10T07:16:34.451Z,99.90
2019-05-10T07:19:04.449Z,99.90
2019-05-10T07:21:38.821Z,99.90
2019-05-10T07:24:18.311Z,99.90
2019-05-10T07:27:02.188Z,99.90
2019-05-10T07:29:41.770Z,99.90
2019-05-10T07:32:03.054Z,99.90
2019-05-10T07:34:33.077Z,99.90
2019-05-10T07:37:03.341Z,99.90
2019-05-10T07:39:33.637Z,99.90
2019-05-10T07:42:06.690Z,99.90
2019-05-10T07:44:41.395Z,99.90
2019-05-10T07:47:10.001Z,99.90
2019-05-10T07:49:39.738Z,99.90
2019-05-10T07:52:10.876Z,99.90
2019-05-10T07:54:47.764Z,99.90
2019-05-10T07:57:25.238Z,99.90
2019-05-10T08:00:03.485Z,99.90
2019-05-10T08:02:32.489Z,99.90
2019-05-10T08:05:05.073Z,99.90
2019-05-10T08:07:38.701Z,99.90
2019-05-10T08:10:21.679Z,99.90
2019-05-10T08:12:51.707Z,99.90
2019-05-10T08:15:24.722Z,99.90
2019-05-10T08:17:58.544Z,99.90
2019-05-10T08:20:49.444Z,99.90
2019-05-10T08:23:59.051Z,99.90
2019-05-10T08:26:26.478Z,99.90
2019-05-10T08:28:56.201Z,99.90
2019-05-10T08:31:52.862Z,99.90
2019-05-10T08:34:19.354Z,99.90
2019-05-10T08:36:51.613Z,99.90
2019-05-10T08:39:26.840Z,99.90
2019-05-10T08:42:04.934Z,99.90
2019-05-10T08:44:32.698Z,99.90
2019-05-10T08:47:07.587Z,99.90
2019-05-10T08:50:07.970Z,99.90
2019-05-10T08:52:19.389Z,99.90
2019-05-10T08:54:49.271Z,99.90
2019-05-10T08:57:22.266Z,99.90
2019-05-10T08:59:54.192Z,99.90
2019-05-10T09:02:32.861Z,99.90
2019-05-10T09:05:02.620Z,99.90
2019-05-10T09:07:36.893Z,99.90
2019-05-10T09:10:09.293Z,99.90
2019-05-10T09:12:35.703Z,99.90
2019-05-10T09:15:12.589Z,99.90
2019-05-10T09:17:42.788Z,99.90
2019-05-10T09:20:26.454Z,99.90
2019-05-10T09:22:48.207Z,99.90
2019-05-10T09:25:20.113Z,99.90
2019-05-10T09:27:53.274Z,99.90
2019-05-10T09:30:35.538Z,99.90
2019-05-10T09:33:13.431Z,99.90
2019-05-10T09:35:46.872Z,99.90
2019-05-10T09:38:14.380Z,99.90
2019-05-10T09:40:51.571Z,99.90
2019-05-10T09:43:22.055Z,99.90
2019-05-10T09:45:57.158Z,99.90
2019-05-10T09:48:27.660Z,99.90
2019-05-10T09:51:04.300Z,99.90
2019-05-10T09:53:32.789Z,99.90
2019-05-10T09:56:08.949Z,99.90
2019-05-10T09:58:40.064Z,99.90
2019-05-10T10:01:17.678Z,99.90
2019-05-10T10:03:43.359Z,99.90
2019-05-10T10:06:15.562Z,99.90
2019-05-10T10:08:53.246Z,99.90
2019-05-10T10:11:27.911Z,99.90
2019-05-10T10:13:59.888Z,99.90
2019-05-10T10:16:29.365Z,99.90
2019-05-10T10:18:59.340Z,99.90
2019-05-10T10:21:35.378Z,99.90
2019-05-10T10:24:14.507Z,99.90
2019-05-10T10:26:37.853Z,99.90
2019-05-10T10:29:08.543Z,99.90
2019-05-10T10:31:48.320Z,99.90
2019-05-10T10:34:10.612Z,99.90
2019-05-10T10:36:55.054Z,99.90
2019-05-10T10:39:29.882Z,99.90
2019-05-10T10:42:02.540Z,99.90
2019-05-10T10:44:32.516Z,99.90
2019-05-10T10:47:12.034Z,99.90
2019-05-10T10:49:41.349Z,99.90
2019-05-10T10:52:17.228Z,99.90
2019-05-10T10:54:50.281Z,99.90
2019-05-10T10:57:24.174Z,99.90
2019-05-10T10:59:54.306Z,99.90
2019-05-10T11:02:32.705Z,99.90
2019-05-10T11:04:59.614Z,99.90
2019-05-10T11:07:47.254Z,99.90
2019-05-10T11:10:19.181Z,99.90
2019-05-10T11:12:56.271Z,99.90
2019-05-10T11:15:41.893Z,99.90
2019-05-10T11:18:11.971Z,99.90
2019-05-10T11:20:54.532Z,99.90
2019-05-10T11:23:34.081Z,99.90
2019-05-10T11:25:57.999Z,99.90
2019-05-10T11:28:38.881Z,99.90
2019-05-10T11:31:08.319Z,99.90
2019-05-10T11:33:50.509Z,99.90
2019-05-10T11:36:21.128Z,99.90
2019-05-10T11:38:56.537Z,99.90
2019-05-10T11:41:26.354Z,99.90
2019-05-10T11:44:09.741Z,99.90
2019-05-10T11:46:55.594Z,99.90
2019-05-10T11:49:30.603Z,99.90
2019-05-10T11:52:01.694Z,99.90
2019-05-10T11:54:32.281Z,99.90
2019-05-10T11:57:06.544Z,99.90
2019-05-10T11:59:38.671Z,99.90
2019-05-10T12:02:33.754Z,99.90
2019-05-10T12:04:44.061Z,99.90
2019-05-10T12:07:14.069Z,99.90
2019-05-10T12:09:55.740Z,99.90
2019-05-10T12:12:30.648Z,99.90
2019-05-10T12:14:53.987Z,99.90
2019-05-10T12:17:24.123Z,99.90
2019-05-10T12:19:57.426Z,99.90
2019-05-10T12:22:38.303Z,99.90
2019-05-10T12:25:28.320Z,99.90
2019-05-10T12:27:47.122Z,99.90
2019-05-10T12:30:11.606Z,99.90
2019-05-10T12:32:55.563Z,99.60
2019-05-10T12:35:17.402Z,98.90
2019-05-10T12:37:55.192Z,94.70
2019-05-10T12:40:45.881Z,85.80
2019-05-10T12:43:21.124Z,89.70
2019-05-10T12:46:00.715Z,91.40
2019-05-10T12:48:46.100Z,81.10
2019-05-10T12:51:33.636Z,88.10
2019-05-10T12:54:31.607Z,94.40
2019-05-10T12:57:08.762Z,94.80
2019-05-10T12:59:40.347Z,93.10
2019-05-10T13:03:10.060Z,77.30
2019-05-10T13:05:32.092Z,67.20
2019-05-10T13:07:58.999Z,57.40
2019-05-10T13:10:31.852Z,57.80
2019-05-10T13:13:07.588Z,55.50
2019-05-10T13:15:39.344Z,57.40
2019-05-10T13:18:49.788Z,56.60
2019-05-10T13:21:19.495Z,53.00
2019-05-10T13:23:42.161Z,52.00
2019-05-10T13:26:14.713Z,55.10
2019-05-10T13:28:48.740Z,58.20
2019-05-10T13:31:42.867Z,61.90
2019-05-10T13:34:19.101Z,65.00
2019-05-10T13:36:49.584Z,63.90
2019-05-10T13:39:27.666Z,72.60
2019-05-10T13:42:05.088Z,85.10
2019-05-10T13:44:47.285Z,93.50
2019-05-10T13:47:24.125Z,89.10
2019-05-10T13:49:54.995Z,94.00
2019-05-10T13:52:40.770Z,93.20
2019-05-10T13:55:18.671Z,93.60
2019-05-10T13:57:49.167Z,90.90
2019-05-10T14:00:43.296Z,93.60
2019-05-10T14:03:20.170Z,95.60
2019-05-10T14:06:03.092Z,93.90
2019-05-10T14:08:35.145Z,91.30
2019-05-10T14:11:16.174Z,91.60
2019-05-10T14:13:53.862Z,84.80
2019-05-10T14:16:55.486Z,80.40
2019-05-10T14:19:26.627Z,71.40
2019-05-10T14:21:58.192Z,79.50
2019-05-10T14:24:40.179Z,91.60
2019-05-10T14:27:24.148Z,92.50
2019-05-10T14:29:59.284Z,94.50
2019-05-10T14:32:33.319Z,94.80
2019-05-10T14:35:16.344Z,93.00
2019-05-10T14:37:48.239Z,92.50
2019-05-10T14:40:27.585Z,91.40
2019-05-10T14:43:04.815Z,90.00
2019-05-10T14:45:35.259Z,89.30
2019-05-10T14:48:05.891Z,91.90
2019-05-10T14:50:37.097Z,88.80
2019-05-10T14:53:10.787Z,83.10
2019-05-10T14:55:59.159Z,78.40
2019-05-10T14:58:33.919Z,80.50
2019-05-10T15:01:07.078Z,84.50
2019-05-10T15:03:46.076Z,85.00
2019-05-10T15:06:20.785Z,86.20
2019-05-10T15:08:52.540Z,82.40
2019-05-10T15:11:26.470Z,86.10
2019-05-10T15:13:57.495Z,84.90
2019-05-10T15:16:31.939Z,86.90
2019-05-10T15:19:10.923Z,88.80
2019-05-10T15:21:44.340Z,87.10
2019-05-10T15:24:17.201Z,90.80
2019-05-10T15:26:47.709Z,85.80
2019-05-10T15:29:24.778Z,87.60
2019-05-10T15:31:57.499Z,84.40
2019-05-10T15:35:11.367Z,84.90
2019-05-10T15:38:12.082Z,86.00
2019-05-10T15:40:57.845Z,88.50
2019-05-10T15:43:37.683Z,82.00
2019-05-10T15:46:35.367Z,74.40
2019-05-10T15:52:58.121Z,73.60
2019-05-10T15:55:30.956Z,76.60
2019-05-10T15:58:06.042Z,80.50
2019-05-10T16:00:42.569Z,83.30
2019-05-10T16:03:23.754Z,84.00
2019-05-10T16:06:01.800Z,81.90
2019-05-10T16:08:37.100Z,81.90
2019-05-10T16:11:19.161Z,82.90
2019-05-10T16:14:00.205Z,81.00
2019-05-10T16:16:37.267Z,81.80
2019-05-10T16:19:06.724Z,86.50
2019-05-10T16:21:40.162Z,82.30
2019-05-10T16:24:26.352Z,87.60
2019-05-10T16:27:00.058Z,91.20
2019-05-10T16:29:39.724Z,90.80
2019-05-10T16:32:09.467Z,90.30
2019-05-10T16:34:43.417Z,92.80
2019-05-10T16:37:18.281Z,95.30
2019-05-10T16:40:04.483Z,95.30
2019-05-10T16:42:56.175Z,98.40
2019-05-10T16:45:39.758Z,99.90
2019-05-10T16:48:16.085Z,99.90
2019-05-10T16:50:48.302Z,99.90
2019-05-10T16:53:45.962Z,99.90
2019-05-10T16:56:35.975Z,99.90
2019-05-10T16:59:08.302Z,99.90
2019-05-10T17:01:46.384Z,99.90
2019-05-10T17:04:19.914Z,99.90
2019-05-10T17:06:58.607Z,99.90
2019-05-10T17:09:28.649Z,99.90
2019-05-10T17:11:59.120Z,99.90
2019-05-10T17:14:30.427Z,99.90
2019-05-10T17:17:01.078Z,99.90
2019-05-10T17:19:34.081Z,99.90
2019-05-10T17:22:08.625Z,99.90
2019-05-10T17:24:41.004Z,99.90
2019-05-10T17:27:11.269Z,99.90
2019-05-10T17:29:49.852Z,99.90
2019-05-10T17:32:24.565Z,99.90
2019-05-10T17:34:59.185Z,99.90
2019-05-10T17:37:43.533Z,99.90
2019-05-10T17:40:21.337Z,99.90
2019-05-10T17:42:53.724Z,99.90
2019-05-10T17:45:28.488Z,99.90
2019-05-10T17:48:08.687Z,99.90
2019-05-10T17:50:40.649Z,99.90
2019-05-10T17:53:10.630Z,99.90
2019-05-10T17:55:49.386Z,99.90
2019-05-10T17:58:33.591Z,99.90
2019-05-10T18:01:00.284Z,99.90
2019-05-10T18:03:35.736Z,99.90
2019-05-10T18:06:06.563Z,99.90
2019-05-10T18:08:37.304Z,99.90
2019-05-10T18:11:07.672Z,99.90
2019-05-10T18:13:42.229Z,99.90
2019-05-10T18:16:20.620Z,99.90
2019-05-10T18:18:59.267Z,99.90
2019-05-10T18:22:07.994Z,99.90
2019-05-10T18:24:42.311Z,99.90
2019-05-10T18:27:13.644Z,99.90
2019-05-10T18:29:48.887Z,99.90
2019-05-10T18:35:52.861Z,99.90
2019-05-10T18:38:37.240Z,99.90
2019-05-10T18:41:15.304Z,99.90
2019-05-10T18:43:56.075Z,99.90
2019-05-10T18:46:43.505Z,99.90
2019-05-10T18:57:50.730Z,99.90
2019-05-10T19:00:40.207Z,99.90
2019-05-10T19:03:09.467Z,99.90
2019-05-10T19:05:42.504Z,99.90
2019-05-10T19:08:12.983Z,99.90
2019-05-10T19:10:56.670Z,99.90
2019-05-10T19:13:28.658Z,99.90
2019-05-10T19:16:03.358Z,99.90
2019-05-10T19:18:39.410Z,99.90
2019-05-10T19:21:17.202Z,99.90
2019-05-10T19:23:52.169Z,99.90
2019-05-10T19:26:23.828Z,99.90
2019-05-10T19:29:05.341Z,99.90
2019-05-10T19:31:55.664Z,99.90
2019-05-10T19:34:30.898Z,99.90
2019-05-10T19:37:07.996Z,99.90
2019-05-10T19:39:43.483Z,99.90
2019-05-10T19:42:16.865Z,99.90
2019-05-10T19:44:54.659Z,99.90
2019-05-10T19:47:37.791Z,99.90
2019-05-10T19:50:16.663Z,99.90
2019-05-10T19:53:59.194Z,99.90
2019-05-10T19:56:36.566Z,99.90
2019-05-10T19:59:16.772Z,99.90
2019-05-10T20:02:10.326Z,99.90
2019-05-10T20:08:08.120Z,99.90
2019-05-10T20:10:38.445Z,99.90
2019-05-10T20:13:14.260Z,99.90
2019-05-10T20:16:05.774Z,99.90
2019-05-10T20:18:38.274Z,99.90
2019-05-10T20:21:16.837Z,99.90
2019-05-10T20:23:52.676Z,99.90
2019-05-10T20:26:22.699Z,99.90
2019-05-10T20:28:56.046Z,99.90
2019-05-10T20:31:54.660Z,99.90
2019-05-10T20:34:44.278Z,99.90
2019-05-10T20:37:31.361Z,99.90
2019-05-10T20:40:15.798Z,99.90
2019-05-10T20:42:55.152Z,99.90
2019-05-10T20:45:30.695Z,99.90
2019-05-10T20:48:24.750Z,99.90
2019-05-10T20:50:59.883Z,99.90
2019-05-10T20:53:35.261Z,99.90
2019-05-10T20:56:06.136Z,99.90
2019-05-10T20:58:46.767Z,99.90
2019-05-10T21:01:21.751Z,99.90
2019-05-10T21:04:06.179Z,99.90
2019-05-10T21:06:40.420Z,99.90
2019-05-10T21:09:24.097Z,99.90
2019-05-10T21:12:03.305Z,99.90
2019-05-10T21:14:36.539Z,99.90
2019-05-10T21:17:11.143Z,99.90
2019-05-10T21:19:51.196Z,99.90
2019-05-10T21:22:34.252Z,99.90
2019-05-10T21:25:24.443Z,99.90
2019-05-10T21:27:56.590Z,99.90
2019-05-10T21:30:28.697Z,99.90
2019-05-10T21:33:27.081Z,99.90
2019-05-10T21:35:58.263Z,99.90
2019-05-10T21:38:44.108Z,99.90
2019-05-10T21:41:36.980Z,99.90
2019-05-10T21:47:34.813Z,99.90
2019-05-10T21:50:17.718Z,99.90
2019-05-10T21:53:09.417Z,99.90
2019-05-10T21:55:54.294Z,99.90
2019-05-10T21:58:24.640Z,99.90
2019-05-10T22:00:59.787Z,99.90
2019-05-10T22:03:31.610Z,99.90
2019-05-10T22:06:09.867Z,99.90
2019-05-10T22:08:57.491Z,99.90
2019-05-10T22:11:45.550Z,99.90
2019-05-10T22:14:31.278Z,99.90
2019-05-10T22:17:12.275Z,99.90
2019-05-10T22:19:46.235Z,99.90
2019-05-10T22:22:32.934Z,99.90
2019-05-10T22:25:10.315Z,99.90
2019-05-10T22:27:41.237Z,99.90
2019-05-10T22:30:13.209Z,99.90
2019-05-10T22:32:46.660Z,99.90
2019-05-10T22:35:17.042Z,99.90
2019-05-10T22:37:56.348Z,99.90
2019-05-10T22:40:36.667Z,99.90
2019-05-10T22:43:28.253Z,99.90
2019-05-10T22:46:49.312Z,99.90
2019-05-10T22:49:35.560Z,99.90
2019-05-10T22:52:21.080Z,99.90
2019-05-10T22:55:00.544Z,99.90
2019-05-10T22:57:37.334Z,99.90
2019-05-10T23:00:10.708Z,99.90
2019-05-10T23:02:41.218Z,99.90
2019-05-10T23:05:14.806Z,99.90
2019-05-10T23:07:45.908Z,99.90
2019-05-10T23:10:27.314Z,99.90
2019-05-10T23:13:08.235Z,99.90
2019-05-10T23:15:45.013Z,99.90
2019-05-10T23:18:28.509Z,99.90
2019-05-10T23:21:02.475Z,99.90
2019-05-10T23:23:43.796Z,99.90
2019-05-10T23:26:19.544Z,99.90
2019-05-10T23:28:53.138Z,99.90
2019-05-10T23:31:29.585Z,99.90
2019-05-10T23:34:02.656Z,99.90
2019-05-10T23:36:38.432Z,99.90
2019-05-10T23:39:12.020Z,99.90
2019-05-10T23:42:04.739Z,99.90
2019-05-10T23:44:38.199Z,99.90
2019-05-10T23:47:28.520Z,99.90
2019-05-10T23:50:01.870Z,99.90
2019-05-10T23:52:39.607Z,99.90
2019-05-10T23:55:09.749Z,99.90
2019-05-10T23:57:42.938Z,99.90
